Time;durP1;ratioP1;P1;durP2;ratioP2;P2;SDS_P1;SDS_P2;PMS_P1;PMS_P2;Temp;Humidity;BMP_temperature;BMP_pressure;BME280_temperature;BME280_humidity;BME280_pressure;Samples;Min_cycle;Max_cycle;Signal;HPM_P1;HPM_P2
2021/10/27 00:00:31;;;;;;;28.23;14.68;;;;;;;;;;4996092;28;20054;-69
2021/10/27 00:02:57;;;;;;;23.35;13.63;;;;;;;;;;4998301;28;20145;-69
2021/10/27 00:05:23;;;;;;;23.60;14.20;;;;;;;;;;4993266;28;20229;-68
2021/10/27 00:07:50;;;;;;;24.10;13.80;;;;;;;;;;4997169;28;20058;-69
2021/10/27 00:10:17;;;;;;;21.48;13.20;;;;;;;;;;4984976;28;20522;-68
2021/10/27 00:12:43;;;;;;;26.23;14.82;;;;;;;;;;4999592;28;20052;-69
2021/10/27 00:15:11;;;;;;;23.92;14.10;;;;;;;;;;4993657;28;20060;-68
2021/10/27 00:17:37;;;;;;;23.63;14.07;;;;;;;;;;4999428;28;20553;-69
2021/10/27 00:20:05;;;;;;;23.88;13.50;;;;;;;;;;5002391;28;20053;-68
2021/10/27 00:22:32;;;;;;;24.05;14.63;;;;;;;;;;4989704;28;20056;-69
2021/10/27 00:24:58;;;;;;;27.92;13.88;;;;;;;;;;4995222;28;20180;-69
2021/10/27 00:27:24;;;;;;;28.20;15.30;;;;;;;;;;4994706;28;20054;-69
2021/10/27 00:29:53;;;;;;;23.67;13.35;;;;;;;;;;4999478;28;20053;-69
2021/10/27 00:32:20;;;;;;;21.65;13.20;;;;;;;;;;4993955;28;20050;-69
2021/10/27 00:34:46;;;;;;;25.67;14.45;;;;;;;;;;5000371;28;20056;-69
2021/10/27 00:37:13;;;;;;;26.40;13.63;;;;;;;;;;4996199;28;20085;-69
2021/10/27 00:39:39;;;;;;;27.90;14.13;;;;;;;;;;4986931;28;20054;-69
2021/10/27 00:42:05;;;;;;;23.13;12.68;;;;;;;;;;5000521;28;20049;-69
2021/10/27 00:44:32;;;;;;;23.50;13.68;;;;;;;;;;4993343;28;20058;-69
2021/10/27 00:46:59;;;;;;;25.80;12.95;;;;;;;;;;5000265;28;20570;-69
2021/10/27 00:49:27;;;;;;;24.58;13.20;;;;;;;;;;4992583;28;20049;-69
2021/10/27 00:51:54;;;;;;;23.08;14.55;;;;;;;;;;4993729;28;20057;-69
2021/10/27 00:54:20;;;;;;;27.00;13.38;;;;;;;;;;4995015;28;20054;-69
2021/10/27 00:56:47;;;;;;;23.90;13.75;;;;;;;;;;4994627;28;20054;-69
2021/10/27 00:59:13;;;;;;;22.50;13.95;;;;;;;;;;5002002;28;20048;-69
2021/10/27 01:01:40;;;;;;;24.45;13.75;;;;;;;;;;4991555;28;20522;-69
2021/10/27 01:04:08;;;;;;;27.23;12.73;;;;;;;;;;4999275;28;20052;-69
2021/10/27 01:06:34;;;;;;;24.55;14.68;;;;;;;;;;4987345;28;20068;-69
2021/10/27 01:09:01;;;;;;;26.80;13.57;;;;;;;;;;4996280;28;20057;-69
2021/10/27 01:11:27;;;;;;;25.30;12.93;;;;;;;;;;4999243;28;20061;-69
2021/10/27 01:13:53;;;;;;;24.27;13.02;;;;;;;;;;4994564;28;20050;-69
2021/10/27 01:16:20;;;;;;;24.25;13.88;;;;;;;;;;4997572;28;20054;-69
2021/10/27 01:18:46;;;;;;;27.50;13.70;;;;;;;;;;4987694;28;20045;-69
2021/10/27 01:21:12;;;;;;;27.13;13.20;;;;;;;;;;4997248;28;20042;-69
2021/10/27 01:23:39;;;;;;;25.90;12.77;;;;;;;;;;4991403;28;20057;-69
2021/10/27 01:26:08;;;;;;;24.38;13.45;;;;;;;;;;4997831;28;20049;-68
2021/10/27 01:28:39;;;;;;;21.50;13.38;;;;;;;;;;5000061;28;20120;-69
2021/10/27 01:31:06;;;;;;;25.42;12.38;;;;;;;;;;4990427;28;20132;-69
2021/10/27 01:33:33;;;;;;;20.38;11.98;;;;;;;;;;4993165;28;20042;-69
2021/10/27 01:35:59;;;;;;;17.50;11.43;;;;;;;;;;4989832;28;20054;-69
2021/10/27 01:38:25;;;;;;;21.48;13.02;;;;;;;;;;4999367;28;20053;-69
2021/10/27 01:40:52;;;;;;;25.30;13.00;;;;;;;;;;4994165;28;20049;-69
2021/10/27 01:43:18;;;;;;;18.17;11.35;;;;;;;;;;4997495;28;20058;-69
2021/10/27 01:45:45;;;;;;;19.25;11.02;;;;;;;;;;5001044;28;20093;-69
2021/10/27 01:48:11;;;;;;;22.73;11.90;;;;;;;;;;4987301;28;20169;-69
2021/10/27 01:50:37;;;;;;;18.52;11.05;;;;;;;;;;4996997;28;20053;-69
2021/10/27 01:53:04;;;;;;;21.42;11.75;;;;;;;;;;4992509;28;20054;-69
2021/10/27 01:55:30;;;;;;;19.15;10.23;;;;;;;;;;4999265;28;20050;-69
2021/10/27 01:57:56;;;;;;;17.33;10.75;;;;;;;;;;4993281;28;20045;-69
2021/10/27 02:00:22;;;;;;;17.88;10.48;;;;;;;;;;4997504;28;20049;-69
2021/10/27 02:02:49;;;;;;;22.75;11.60;;;;;;;;;;4992571;28;20054;-69
2021/10/27 02:05:15;;;;;;;18.95;9.82;;;;;;;;;;4991939;28;20155;-69
2021/10/27 02:07:41;;;;;;;23.23;11.13;;;;;;;;;;5000544;28;20046;-69
2021/10/27 02:10:09;;;;;;;20.80;11.00;;;;;;;;;;4990544;28;20052;-69
2021/10/27 02:12:36;;;;;;;19.83;10.00;;;;;;;;;;4998542;28;20062;-69
2021/10/27 02:15:03;;;;;;;16.10;9.23;;;;;;;;;;4989684;28;20855;-69
2021/10/27 02:17:29;;;;;;;15.65;8.90;;;;;;;;;;4991928;28;20053;-69
2021/10/27 02:19:56;;;;;;;20.35;9.75;;;;;;;;;;4995230;28;20061;-69
2021/10/27 02:22:22;;;;;;;16.10;9.45;;;;;;;;;;4998018;28;20049;-69
2021/10/27 02:24:48;;;;;;;21.00;9.90;;;;;;;;;;4998882;28;20053;-69
2021/10/27 02:27:15;;;;;;;19.02;9.05;;;;;;;;;;4991598;28;20057;-69
2021/10/27 02:29:41;;;;;;;12.80;8.55;;;;;;;;;;4994758;28;20542;-69
2021/10/27 02:32:08;;;;;;;17.25;9.38;;;;;;;;;;4988011;28;20081;-68
2021/10/27 02:34:34;;;;;;;16.55;8.93;;;;;;;;;;4997322;28;20503;-69
2021/10/27 02:37:00;;;;;;;17.42;9.02;;;;;;;;;;4993147;28;20046;-68
2021/10/27 02:39:27;;;;;;;20.70;10.25;;;;;;;;;;4996998;28;20072;-68
2021/10/27 02:41:53;;;;;;;19.33;8.15;;;;;;;;;;4994376;28;20060;-69
2021/10/27 02:44:19;;;;;;;17.33;8.75;;;;;;;;;;4987254;28;20042;-69
2021/10/27 02:46:46;;;;;;;13.65;7.70;;;;;;;;;;4999359;28;20045;-69
2021/10/27 02:49:13;;;;;;;14.35;7.90;;;;;;;;;;4990946;28;20046;-68
2021/10/27 02:51:39;;;;;;;17.38;7.18;;;;;;;;;;4998100;28;20053;-68
2021/10/27 02:54:05;;;;;;;21.65;8.05;;;;;;;;;;4992267;28;20406;-68
2021/10/27 02:56:32;;;;;;;17.00;7.53;;;;;;;;;;4994333;28;20049;-69
2021/10/27 02:58:58;;;;;;;12.23;7.38;;;;;;;;;;4996969;28;20046;-69
2021/10/27 03:01:25;;;;;;;14.70;6.82;;;;;;;;;;4991807;28;20049;-69
2021/10/27 03:03:58;;;;;;;11.88;6.43;;;;;;;;;;4996825;28;20577;-69
2021/10/27 03:06:24;;;;;;;15.77;6.70;;;;;;;;;;4992316;28;20498;-69
2021/10/27 03:08:52;;;;;;;14.02;6.20;;;;;;;;;;4996662;28;20693;-69
2021/10/27 03:11:18;;;;;;;10.98;5.40;;;;;;;;;;4986860;28;20058;-69
2021/10/27 03:13:44;;;;;;;14.90;6.22;;;;;;;;;;5000701;28;20669;-69
2021/10/27 03:16:11;;;;;;;10.57;5.40;;;;;;;;;;5004242;28;20116;-69
2021/10/27 03:18:37;;;;;;;13.95;5.03;;;;;;;;;;4996389;28;20051;-69
2021/10/27 03:21:04;;;;;;;14.60;5.60;;;;;;;;;;5001707;28;20042;-69
2021/10/27 03:23:31;;;;;;;14.50;4.68;;;;;;;;;;4991085;28;20590;-69
2021/10/27 03:25:57;;;;;;;14.38;4.88;;;;;;;;;;4997518;28;20050;-69
2021/10/27 03:28:24;;;;;;;13.77;5.30;;;;;;;;;;4995121;28;20042;-68
2021/10/27 03:30:50;;;;;;;13.73;4.85;;;;;;;;;;5002992;28;20054;-69
2021/10/27 03:33:16;;;;;;;16.90;5.82;;;;;;;;;;5002653;28;20045;-69
2021/10/27 03:35:43;;;;;;;14.48;4.90;;;;;;;;;;4994855;28;20129;-69
2021/10/27 03:38:09;;;;;;;16.35;5.28;;;;;;;;;;4998386;28;20058;-69
2021/10/27 03:40:35;;;;;;;9.88;4.82;;;;;;;;;;4990802;28;20046;-69
2021/10/27 03:43:02;;;;;;;14.13;4.85;;;;;;;;;;5000748;28;20797;-69
2021/10/27 03:45:28;;;;;;;13.25;4.95;;;;;;;;;;4996267;28;20088;-69
2021/10/27 03:47:55;;;;;;;18.33;5.45;;;;;;;;;;5001188;28;20052;-69
2021/10/27 03:50:21;;;;;;;15.88;4.60;;;;;;;;;;5000075;28;20402;-67
2021/10/27 03:52:47;;;;;;;12.65;4.70;;;;;;;;;;4988581;28;20050;-67
2021/10/27 03:55:13;;;;;;;12.23;4.97;;;;;;;;;;4998676;28;20042;-67
2021/10/27 03:57:40;;;;;;;22.45;5.65;;;;;;;;;;4996002;28;20045;-67
2021/10/27 04:00:07;;;;;;;12.50;4.63;;;;;;;;;;5002011;28;20848;-68
2021/10/27 04:02:36;;;;;;;13.55;4.88;;;;;;;;;;4993868;28;20058;-67
2021/10/27 04:05:03;;;;;;;14.90;4.65;;;;;;;;;;4996167;28;20169;-67
2021/10/27 04:07:29;;;;;;;14.82;5.18;;;;;;;;;;4996421;28;20050;-67
2021/10/27 04:09:55;;;;;;;12.27;4.70;;;;;;;;;;4994250;28;20050;-68
2021/10/27 04:12:22;;;;;;;11.38;4.47;;;;;;;;;;5000582;28;20038;-67
2021/10/27 04:14:48;;;;;;;11.15;4.10;;;;;;;;;;4994011;28;20473;-67
2021/10/27 04:17:14;;;;;;;11.80;3.97;;;;;;;;;;5002116;28;20045;-68
2021/10/27 04:19:41;;;;;;;11.63;4.40;;;;;;;;;;4989180;28;20062;-68
2021/10/27 04:22:07;;;;;;;8.75;3.90;;;;;;;;;;4995376;28;20058;-68
2021/10/27 04:24:33;;;;;;;12.23;4.20;;;;;;;;;;4998943;28;20077;-67
2021/10/27 04:27:00;;;;;;;11.20;4.45;;;;;;;;;;4991054;28;20050;-67
2021/10/27 04:29:26;;;;;;;15.18;4.93;;;;;;;;;;5000448;28;20066;-67
2021/10/27 04:31:52;;;;;;;9.55;4.30;;;;;;;;;;4995697;28;20418;-68
2021/10/27 04:34:18;;;;;;;12.15;4.28;;;;;;;;;;4993675;28;20828;-67
2021/10/27 04:36:45;;;;;;;11.57;4.40;;;;;;;;;;4986981;28;20065;-68
2021/10/27 04:39:11;;;;;;;16.60;4.68;;;;;;;;;;5001394;28;20061;-67
2021/10/27 04:41:38;;;;;;;15.77;5.20;;;;;;;;;;4989160;28;20733;-67
2021/10/27 04:44:04;;;;;;;15.85;4.75;;;;;;;;;;4995339;28;20050;-68
2021/10/27 04:46:30;;;;;;;11.45;4.60;;;;;;;;;;5000182;28;20054;-67
2021/10/27 04:48:57;;;;;;;13.68;5.10;;;;;;;;;;4989064;28;20060;-68
2021/10/27 04:51:23;;;;;;;13.18;4.88;;;;;;;;;;5000544;28;20050;-67
2021/10/27 04:53:49;;;;;;;10.57;4.18;;;;;;;;;;4995884;28;20050;-67
2021/10/27 04:56:15;;;;;;;11.90;4.28;;;;;;;;;;4999847;28;20401;-68
2021/10/27 04:58:42;;;;;;;12.57;3.92;;;;;;;;;;5002096;28;20088;-68
2021/10/27 05:01:08;;;;;;;11.65;4.18;;;;;;;;;;4989371;28;20123;-68
2021/10/27 05:03:40;;;;;;;14.75;4.00;;;;;;;;;;4995529;28;20046;-68
2021/10/27 05:06:08;;;;;;;14.73;4.15;;;;;;;;;;4992744;28;20054;-68
2021/10/27 05:08:46;;;;;;;18.80;4.40;;;;;;;;;;5000246;28;20046;-68
2021/10/27 05:11:12;;;;;;;10.63;3.67;;;;;;;;;;4976875;28;20053;-68
2021/10/27 05:13:38;;;;;;;9.48;3.30;;;;;;;;;;5001317;28;20050;-68
2021/10/27 05:16:05;;;;;;;10.48;3.80;;;;;;;;;;4973735;28;20639;-68
2021/10/27 05:18:31;;;;;;;11.95;4.32;;;;;;;;;;4995916;28;20513;-68
2021/10/27 05:20:57;;;;;;;14.63;4.15;;;;;;;;;;5000053;28;20058;-68
2021/10/27 05:23:24;;;;;;;10.93;4.03;;;;;;;;;;4993597;28;20056;-67
2021/10/27 05:25:50;;;;;;;8.73;3.85;;;;;;;;;;5001870;28;20046;-68
2021/10/27 05:28:17;;;;;;;17.15;4.38;;;;;;;;;;4993569;28;20049;-68
2021/10/27 05:30:43;;;;;;;10.38;4.30;;;;;;;;;;4993732;28;20058;-68
2021/10/27 05:33:09;;;;;;;16.67;4.03;;;;;;;;;;4991599;28;20505;-67
2021/10/27 05:35:35;;;;;;;14.98;4.63;;;;;;;;;;4998520;28;20157;-68
2021/10/27 05:38:02;;;;;;;8.93;3.85;;;;;;;;;;4996811;28;20042;-67
2021/10/27 05:40:29;;;;;;;12.75;4.47;;;;;;;;;;4992745;28;20380;-68
2021/10/27 05:42:55;;;;;;;12.85;4.35;;;;;;;;;;4995983;28;20072;-68
2021/10/27 05:45:25;;;;;;;9.77;4.18;;;;;;;;;;4985749;28;20043;-68
2021/10/27 05:47:55;;;;;;;12.35;4.85;;;;;;;;;;5000354;28;20046;-68
2021/10/27 05:50:38;;;;;;;11.60;3.97;;;;;;;;;;4990902;28;20046;-67
2021/10/27 05:55:50;;;;;;;14.02;4.53;;;;;;;;;;4993803;28;20046;-67
2021/10/27 05:58:16;;;;;;;10.75;4.53;;;;;;;;;;4993073;28;20041;-67
2021/10/27 06:00:44;;;;;;;13.10;4.50;;;;;;;;;;4990960;28;20062;-68
2021/10/27 06:03:10;;;;;;;10.85;4.70;;;;;;;;;;4984688;28;20046;-67
2021/10/27 06:05:37;;;;;;;16.88;4.65;;;;;;;;;;4999081;28;20570;-68
2021/10/27 06:08:04;;;;;;;14.50;4.88;;;;;;;;;;4990449;28;20568;-67
2021/10/27 06:10:30;;;;;;;18.95;5.45;;;;;;;;;;4997848;28;20058;-68
2021/10/27 06:13:05;;;;;;;12.68;4.93;;;;;;;;;;4986495;28;20065;-68
2021/10/27 06:15:32;;;;;;;15.73;5.22;;;;;;;;;;4995449;28;20258;-67
2021/10/27 06:17:59;;;;;;;12.15;4.40;;;;;;;;;;4997705;28;20049;-68
2021/10/27 06:20:25;;;;;;;13.10;4.88;;;;;;;;;;4993006;28;20057;-67
2021/10/27 06:22:52;;;;;;;15.35;5.28;;;;;;;;;;4996247;28;20051;-68
2021/10/27 06:25:18;;;;;;;12.73;5.35;;;;;;;;;;4987335;28;20691;-67
2021/10/27 06:27:50;;;;;;;15.52;5.50;;;;;;;;;;4993317;28;20050;-67
2021/10/27 06:30:27;;;;;;;16.88;5.03;;;;;;;;;;4987514;28;20054;-67
2021/10/27 06:33:01;;;;;;;14.48;5.32;;;;;;;;;;4997874;28;20514;-68
2021/10/27 06:35:31;;;;;;;19.55;5.60;;;;;;;;;;4993095;28;20054;-67
2021/10/27 06:46:38;;;;;;;12.25;5.25;;;;;;;;;;4899568;29;20453;-67
2021/10/27 06:49:04;;;;;;;11.02;5.05;;;;;;;;;;4898336;29;20067;-67
2021/10/27 06:51:31;;;;;;;11.60;5.28;;;;;;;;;;4952410;28;20065;-67
2021/10/27 06:53:58;;;;;;;12.77;5.88;;;;;;;;;;4990101;28;20050;-67
2021/10/27 06:56:24;;;;;;;13.60;5.82;;;;;;;;;;4997968;28;20050;-67
2021/10/27 07:01:21;;;;;;;16.27;6.00;;;;;;;;;;5002313;28;20046;-67
2021/10/27 07:06:55;;;;;;;14.05;5.63;;;;;;;;;;4994404;28;20514;-67
2021/10/27 07:17:25;;;;;;;13.43;5.85;;;;;;;;;;4995172;28;20052;-68
2021/10/27 07:19:51;;;;;;;14.20;5.30;;;;;;;;;;5003545;28;20058;-68
2021/10/27 07:22:18;;;;;;;13.75;5.53;;;;;;;;;;4991563;28;20104;-67
2021/10/27 07:24:44;;;;;;;14.57;5.95;;;;;;;;;;4995681;28;20049;-67
2021/10/27 07:27:11;;;;;;;15.27;5.38;;;;;;;;;;4994747;28;20049;-67
2021/10/27 07:29:41;;;;;;;17.50;5.45;;;;;;;;;;5001873;28;20617;-67
2021/10/27 07:32:09;;;;;;;13.65;5.95;;;;;;;;;;4999343;28;20050;-67
2021/10/27 07:34:39;;;;;;;17.70;5.90;;;;;;;;;;4995088;28;20054;-67
2021/10/27 07:42:25;;;;;;;10.05;5.07;;;;;;;;;;5001593;28;20621;-67
2021/10/27 07:44:52;;;;;;;15.50;5.47;;;;;;;;;;4996109;28;20050;-67
2021/10/27 07:47:19;;;;;;;14.48;5.40;;;;;;;;;;4999033;28;20064;-67
2021/10/27 07:49:47;;;;;;;14.35;5.80;;;;;;;;;;4992573;28;20207;-67
2021/10/27 07:52:13;;;;;;;12.13;5.90;;;;;;;;;;4996129;28;20057;-67
2021/10/27 07:54:40;;;;;;;12.27;6.07;;;;;;;;;;5002721;28;20057;-67
2021/10/27 07:57:06;;;;;;;14.60;6.22;;;;;;;;;;4995494;28;20061;-67
2021/10/27 07:59:32;;;;;;;17.10;6.68;;;;;;;;;;5001527;28;20049;-69
2021/10/27 08:02:06;;;;;;;13.27;6.63;;;;;;;;;;4996268;28;20041;-67
2021/10/27 08:04:36;;;;;;;16.83;5.90;;;;;;;;;;4997128;28;21370;-67
2021/10/27 08:07:03;;;;;;;17.33;6.38;;;;;;;;;;4992038;28;20046;-67
2021/10/27 08:09:30;;;;;;;14.32;6.18;;;;;;;;;;5001432;28;20080;-67
2021/10/27 08:11:56;;;;;;;11.35;6.05;;;;;;;;;;5002182;28;20050;-67
2021/10/27 08:14:22;;;;;;;15.07;7.00;;;;;;;;;;4996333;28;20430;-67
2021/10/27 08:16:58;;;;;;;17.15;6.95;;;;;;;;;;4998971;28;20049;-67
2021/10/27 08:19:25;;;;;;;12.68;5.53;;;;;;;;;;4994266;28;20780;-68
2021/10/27 08:21:51;;;;;;;16.95;6.70;;;;;;;;;;5001686;28;20054;-67
2021/10/27 08:24:23;;;;;;;16.52;6.35;;;;;;;;;;4995517;28;20152;-67
2021/10/27 08:26:54;;;;;;;12.88;6.20;;;;;;;;;;5002725;28;20061;-67
2021/10/27 08:29:26;;;;;;;14.27;6.88;;;;;;;;;;4992471;28;20395;-67
2021/10/27 08:31:57;;;;;;;17.98;7.35;;;;;;;;;;4996547;28;20057;-67
2021/10/27 08:34:35;;;;;;;13.15;6.95;;;;;;;;;;5001868;28;20410;-67
2021/10/27 08:37:02;;;;;;;19.00;7.65;;;;;;;;;;4993835;28;20057;-67
2021/10/27 08:39:28;;;;;;;14.60;6.97;;;;;;;;;;5000586;28;20060;-67
2021/10/27 08:41:55;;;;;;;15.25;6.70;;;;;;;;;;4994015;28;20066;-68
2021/10/27 08:44:21;;;;;;;16.63;7.43;;;;;;;;;;4996993;28;20786;-67
2021/10/27 08:46:48;;;;;;;19.95;7.18;;;;;;;;;;4992945;28;20053;-68
2021/10/27 08:49:16;;;;;;;17.20;7.10;;;;;;;;;;5001506;28;20349;-67
2021/10/27 08:51:43;;;;;;;15.10;7.10;;;;;;;;;;5000922;28;20052;-67
2021/10/27 08:54:10;;;;;;;12.43;6.78;;;;;;;;;;4995238;28;20049;-68
2021/10/27 08:56:42;;;;;;;16.05;7.63;;;;;;;;;;4997800;28;20046;-68
2021/10/27 08:59:23;;;;;;;14.13;7.15;;;;;;;;;;4991575;28;20046;-68
2021/10/27 09:04:25;;;;;;;15.80;8.35;;;;;;;;;;4995595;28;20050;-68
2021/10/27 09:07:08;;;;;;;15.70;7.57;;;;;;;;;;5002305;28;20053;-68
2021/10/27 09:15:31;;;;;;;18.58;8.23;;;;;;;;;;4994355;28;20042;-68
2021/10/27 09:35:17;;;;;;;14.57;7.22;;;;;;;;;;4998878;28;20046;-69
2021/10/27 09:38:01;;;;;;;16.33;8.02;;;;;;;;;;4988750;28;20779;-68
2021/10/27 10:05:26;;;;;;;18.83;7.47;;;;;;;;;;4992858;28;20787;-68
2021/10/27 10:07:52;;;;;;;12.10;7.28;;;;;;;;;;4988778;28;20054;-67
2021/10/27 10:10:19;;;;;;;16.42;7.45;;;;;;;;;;4997824;28;20046;-68
2021/10/27 10:12:48;;;;;;;16.95;7.65;;;;;;;;;;4991130;28;20092;-68
2021/10/27 10:15:18;;;;;;;15.30;7.72;;;;;;;;;;4998187;28;20088;-68
2021/10/27 10:17:45;;;;;;;14.75;7.60;;;;;;;;;;4989962;28;20042;-68
2021/10/27 10:20:12;;;;;;;12.65;6.93;;;;;;;;;;4992078;28;20050;-68
2021/10/27 10:23:15;;;;;;;13.57;6.90;;;;;;;;;;4990736;28;20045;-68
2021/10/27 10:25:48;;;;;;;14.23;7.65;;;;;;;;;;4996854;28;20622;-68
2021/10/27 10:28:19;;;;;;;14.93;7.38;;;;;;;;;;4997187;28;20042;-68
2021/10/27 10:30:55;;;;;;;14.20;7.30;;;;;;;;;;4995333;28;20498;-68
2021/10/27 10:33:34;;;;;;;15.40;7.03;;;;;;;;;;4992491;28;20092;-68
2021/10/27 10:36:04;;;;;;;15.57;7.80;;;;;;;;;;4991953;28;20053;-68
2021/10/27 11:02:00;;;;;;;11.55;5.95;;;;;;;;;;4992809;28;20304;-68
2021/10/27 11:37:54;;;;;;;9.32;4.75;;;;;;;;;;4952639;28;20050;-67
2021/10/27 11:40:29;;;;;;;9.02;4.60;;;;;;;;;;4994267;28;20042;-69
2021/10/27 11:43:03;;;;;;;10.23;4.95;;;;;;;;;;4992631;28;20767;-67
2021/10/27 11:48:01;;;;;;;8.80;4.90;;;;;;;;;;4993400;28;20050;-69
2021/10/27 11:50:38;;;;;;;11.00;4.70;;;;;;;;;;4990886;28;20049;-69
2021/10/27 11:53:06;;;;;;;10.38;4.63;;;;;;;;;;4997295;28;20049;-67
2021/10/27 11:55:33;;;;;;;12.00;5.13;;;;;;;;;;4989344;28;20046;-67
2021/10/27 11:58:01;;;;;;;10.57;4.90;;;;;;;;;;5001039;28;20053;-67
2021/10/27 12:00:33;;;;;;;12.80;5.00;;;;;;;;;;4985965;28;20053;-67
2021/10/27 12:03:12;;;;;;;13.20;4.90;;;;;;;;;;5000145;28;20057;-69
2021/10/27 12:05:44;;;;;;;11.10;5.90;;;;;;;;;;4992149;28;20046;-69
2021/10/27 12:16:25;;;;;;;10.25;4.75;;;;;;;;;;4992958;28;20046;-66
2021/10/27 12:19:05;;;;;;;9.35;4.80;;;;;;;;;;4999918;28;20046;-69
2021/10/27 12:21:31;;;;;;;10.02;4.90;;;;;;;;;;4992112;28;20057;-66
2021/10/27 12:24:02;;;;;;;7.20;4.30;;;;;;;;;;4994584;28;20056;-67
2021/10/27 12:26:48;;;;;;;11.68;5.15;;;;;;;;;;4999859;28;20046;-67
2021/10/27 12:29:26;;;;;;;11.70;5.00;;;;;;;;;;4993200;28;20073;-67
2021/10/27 12:32:06;;;;;;;7.30;4.83;;;;;;;;;;4999462;28;20041;-67
2021/10/27 12:34:33;;;;;;;10.98;5.03;;;;;;;;;;4988789;28;20654;-67
2021/10/27 12:37:15;;;;;;;10.90;4.85;;;;;;;;;;4995228;28;20487;-67
2021/10/27 12:39:45;;;;;;;10.90;5.30;;;;;;;;;;4992421;28;20046;-67
2021/10/27 12:42:12;;;;;;;13.73;5.32;;;;;;;;;;4999156;28;20038;-67
2021/10/27 12:44:52;;;;;;;14.20;5.60;;;;;;;;;;4992140;28;20100;-67
2021/10/27 12:47:23;;;;;;;10.13;5.57;;;;;;;;;;4998410;28;20050;-67
2021/10/27 12:50:03;;;;;;;11.65;5.40;;;;;;;;;;4995723;28;20053;-67
2021/10/27 12:52:32;;;;;;;9.93;5.97;;;;;;;;;;4997702;28;20045;-69
2021/10/27 12:55:24;;;;;;;9.48;4.97;;;;;;;;;;4998384;28;20058;-69
2021/10/27 12:57:55;;;;;;;13.13;5.07;;;;;;;;;;4991721;28;20428;-69
2021/10/27 13:00:37;;;;;;;8.45;4.60;;;;;;;;;;4997877;28;20053;-69
2021/10/27 13:17:38;;;;;;;11.50;5.70;;;;;;;;;;4998346;28;20046;-69
2021/10/27 13:20:05;;;;;;;11.50;5.03;;;;;;;;;;4992945;28;20046;-69
2021/10/27 13:22:47;;;;;;;11.32;5.70;;;;;;;;;;4999258;28;20056;-69
2021/10/27 13:30:49;;;;;;;12.88;4.95;;;;;;;;;;4992632;28;20045;-69
2021/10/27 13:33:17;;;;;;;10.75;5.43;;;;;;;;;;4998784;28;20566;-69
2021/10/27 13:35:44;;;;;;;8.45;5.05;;;;;;;;;;4988629;28;20062;-69
2021/10/27 13:38:10;;;;;;;11.05;5.15;;;;;;;;;;4994644;28;20050;-69
2021/10/27 13:40:40;;;;;;;11.70;4.82;;;;;;;;;;4998561;28;20050;-67
2021/10/27 13:43:24;;;;;;;14.13;4.82;;;;;;;;;;4989497;28;20054;-68
2021/10/27 13:46:15;;;;;;;12.95;5.47;;;;;;;;;;4998008;28;20050;-68
2021/10/27 13:49:03;;;;;;;10.70;5.43;;;;;;;;;;4988299;28;20076;-68
2021/10/27 14:05:59;;;;;;;12.07;5.20;;;;;;;;;;4994380;28;20058;-68
2021/10/27 14:08:25;;;;;;;9.70;4.47;;;;;;;;;;4996184;28;20050;-68
2021/10/27 14:11:03;;;;;;;10.85;4.38;;;;;;;;;;4989248;28;20050;-67
2021/10/27 14:13:43;;;;;;;10.02;4.20;;;;;;;;;;4995942;28;20054;-68
2021/10/27 14:16:46;;;;;;;8.98;4.78;;;;;;;;;;4988926;28;20069;-67
2021/10/27 14:19:34;;;;;;;13.45;5.30;;;;;;;;;;4992837;28;20056;-68
2021/10/27 15:27:46;;;;;;;10.35;4.38;;;;;;;;;;4997085;28;21275;-67
2021/10/27 15:51:21;;;;;;;12.27;5.53;;;;;;;;;;4994728;28;20471;-66
2021/10/27 15:53:47;;;;;;;16.10;5.72;;;;;;;;;;4993247;28;20066;-69
2021/10/27 15:56:14;;;;;;;15.93;6.03;;;;;;;;;;5001379;28;20413;-69
2021/10/27 15:58:40;;;;;;;10.68;4.85;;;;;;;;;;4994524;28;20126;-67
2021/10/27 16:01:06;;;;;;;12.88;5.30;;;;;;;;;;5001022;28;20084;-67
2021/10/27 16:03:33;;;;;;;11.35;5.60;;;;;;;;;;4994775;28;20057;-67
2021/10/27 16:05:59;;;;;;;12.25;5.15;;;;;;;;;;4994691;28;20072;-69
2021/10/27 16:08:27;;;;;;;12.50;4.65;;;;;;;;;;4995806;28;20045;-67
2021/10/27 16:10:54;;;;;;;13.20;6.47;;;;;;;;;;4997321;28;20049;-66
2021/10/27 16:13:21;;;;;;;17.40;5.18;;;;;;;;;;5000838;28;20050;-66
2021/10/27 16:15:57;;;;;;;8.18;4.25;;;;;;;;;;4991244;28;20061;-66
2021/10/27 16:18:25;;;;;;;13.55;4.07;;;;;;;;;;4993648;28;20742;-66
2021/10/27 16:20:52;;;;;;;8.53;4.17;;;;;;;;;;4988509;28;20537;-68
2021/10/27 16:23:19;;;;;;;9.18;4.03;;;;;;;;;;4998088;28;20057;-68
2021/10/27 16:25:46;;;;;;;9.32;4.18;;;;;;;;;;4993902;28;21115;-66
2021/10/27 16:28:13;;;;;;;9.00;4.10;;;;;;;;;;4997803;28;20054;-67
2021/10/27 16:30:40;;;;;;;8.82;3.65;;;;;;;;;;4999408;28;20137;-68
2021/10/27 16:33:06;;;;;;;9.15;3.28;;;;;;;;;;4988785;28;20996;-66
2021/10/27 16:35:34;;;;;;;9.15;3.92;;;;;;;;;;4996759;28;20046;-66
2021/10/27 16:38:02;;;;;;;7.90;3.90;;;;;;;;;;4994189;28;20804;-65
2021/10/27 16:40:28;;;;;;;10.00;3.38;;;;;;;;;;4999785;28;20058;-66
2021/10/27 16:42:55;;;;;;;8.98;4.03;;;;;;;;;;4994406;28;20045;-65
2021/10/27 16:45:26;;;;;;;13.18;4.22;;;;;;;;;;4992210;28;20060;-66
2021/10/27 16:47:52;;;;;;;12.18;3.63;;;;;;;;;;4992243;28;20061;-66
2021/10/27 16:50:19;;;;;;;12.02;4.53;;;;;;;;;;4987364;28;20146;-66
2021/10/27 16:52:46;;;;;;;9.43;4.03;;;;;;;;;;4987803;28;20929;-66
2021/10/27 16:55:19;;;;;;;7.63;4.22;;;;;;;;;;4992724;28;20073;-66
2021/10/27 16:57:48;;;;;;;8.65;3.67;;;;;;;;;;4998530;28;20050;-66
2021/10/27 17:00:15;;;;;;;13.30;3.95;;;;;;;;;;4989426;28;20748;-66
2021/10/27 17:02:42;;;;;;;9.00;4.00;;;;;;;;;;4996389;28;20177;-66
2021/10/27 17:05:09;;;;;;;9.50;4.50;;;;;;;;;;4994467;28;20048;-66
2021/10/27 17:07:36;;;;;;;10.52;4.38;;;;;;;;;;4999655;28;20042;-66
2021/10/27 17:10:04;;;;;;;13.15;4.07;;;;;;;;;;4981597;28;20045;-66
2021/10/27 17:12:31;;;;;;;10.20;3.97;;;;;;;;;;4990989;28;20052;-66
2021/10/27 17:14:58;;;;;;;11.25;4.47;;;;;;;;;;4993767;28;20042;-66
2021/10/27 17:17:24;;;;;;;8.27;3.75;;;;;;;;;;4992968;28;20050;-66
2021/10/27 17:19:50;;;;;;;10.30;4.25;;;;;;;;;;4999358;28;20045;-66
2021/10/27 17:22:17;;;;;;;8.05;3.50;;;;;;;;;;4995655;28;20055;-67
2021/10/27 17:24:44;;;;;;;9.07;3.83;;;;;;;;;;4999109;28;20061;-67
2021/10/27 17:27:25;;;;;;;6.22;3.53;;;;;;;;;;4996127;28;20462;-66
2021/10/27 17:29:51;;;;;;;8.45;4.95;;;;;;;;;;4987990;28;20057;-66
2021/10/27 17:32:17;;;;;;;8.95;5.13;;;;;;;;;;4997209;28;20073;-66
2021/10/27 17:34:45;;;;;;;10.00;5.00;;;;;;;;;;4989802;28;20050;-66
2021/10/27 17:37:12;;;;;;;9.48;4.28;;;;;;;;;;4996383;28;20057;-67
2021/10/27 17:39:41;;;;;;;8.40;4.23;;;;;;;;;;4991730;28;20061;-66
2021/10/27 17:42:09;;;;;;;10.25;5.22;;;;;;;;;;4990303;28;20283;-66
2021/10/27 17:44:36;;;;;;;9.35;4.47;;;;;;;;;;4989398;28;20083;-66
2021/10/27 17:47:06;;;;;;;9.93;5.00;;;;;;;;;;4976654;28;20058;-66
2021/10/27 17:49:50;;;;;;;12.05;5.15;;;;;;;;;;4998151;28;20054;-66
2021/10/27 18:00:00;;;;;;;11.10;5.35;;;;;;;;;;4999555;28;20057;-67
2021/10/27 18:02:27;;;;;;;14.85;5.85;;;;;;;;;;4993464;28;20065;-66
2021/10/27 18:04:54;;;;;;;11.20;5.32;;;;;;;;;;4989339;28;20133;-66
2021/10/27 18:07:24;;;;;;;11.60;6.03;;;;;;;;;;4989397;28;20153;-68
2021/10/27 18:09:51;;;;;;;9.27;4.97;;;;;;;;;;4983842;28;20050;-68
2021/10/27 18:12:23;;;;;;;9.52;4.97;;;;;;;;;;4994896;28;20042;-67
2021/10/27 18:14:51;;;;;;;13.10;5.28;;;;;;;;;;4986710;28;20466;-69
2021/10/27 18:17:20;;;;;;;12.20;5.68;;;;;;;;;;4994888;28;20046;-68
2021/10/27 18:20:07;;;;;;;15.00;5.53;;;;;;;;;;4983977;28;20058;-69
2021/10/27 18:25:14;;;;;;;12.82;5.82;;;;;;;;;;4989441;28;20056;-67
2021/10/27 18:39:21;;;;;;;10.98;5.80;;;;;;;;;;4914981;29;20047;-67
2021/10/27 18:42:09;;;;;;;11.93;5.82;;;;;;;;;;4992321;28;20046;-67
2021/10/27 18:44:39;;;;;;;13.10;6.18;;;;;;;;;;4986507;28;20503;-67
2021/10/27 18:47:08;;;;;;;13.27;7.60;;;;;;;;;;4991108;28;20050;-67
2021/10/27 18:49:34;;;;;;;;;;;;;;;;;;4980086;28;20057;-67
2021/10/27 18:52:11;;;;;;;10.95;6.35;;;;;;;;;;4986079;28;19936;-67
2021/10/27 18:54:53;;;;;;;15.48;6.65;;;;;;;;;;4969329;28;20061;-67
2021/10/27 18:57:48;;;;;;;12.68;6.13;;;;;;;;;;4994868;28;20049;-68
2021/10/27 19:00:31;;;;;;;11.95;6.43;;;;;;;;;;4986879;28;20497;-67
2021/10/27 19:11:05;;;;;;;11.90;6.82;;;;;;;;;;4991681;28;20050;-68
2021/10/27 19:16:02;;;;;;;16.30;6.88;;;;;;;;;;4988260;28;20053;-67
2021/10/27 19:18:29;;;;;;;12.45;6.75;;;;;;;;;;4979027;28;20068;-67
2021/10/27 19:20:56;;;;;;;12.07;6.18;;;;;;;;;;4990160;28;20050;-68
2021/10/27 19:23:23;;;;;;;12.45;6.63;;;;;;;;;;4985727;28;20065;-68
2021/10/27 19:28:56;;;;;;;12.35;6.88;;;;;;;;;;4969491;28;20061;-67
2021/10/27 20:09:49;;;;;;;11.88;6.10;;;;;;;;;;4987358;28;20136;-68
2021/10/27 20:17:59;;;;;;;16.13;6.97;;;;;;;;;;4995516;28;20049;-67
2021/10/27 20:53:17;;;;;;;11.63;7.10;;;;;;;;;;4987699;28;20057;-69
2021/10/27 20:55:44;;;;;;;13.50;6.35;;;;;;;;;;4976514;28;20499;-69
2021/10/27 20:58:40;;;;;;;16.30;7.57;;;;;;;;;;4995638;28;20212;-69
2021/10/27 21:03:48;;;;;;;13.52;6.75;;;;;;;;;;4994490;28;20058;-69
2021/10/27 21:14:33;;;;;;;14.30;7.35;;;;;;;;;;4994765;28;20069;-69